Time;durP1;ratioP1;P1;durP2;ratioP2;P2;SDS_P1;SDS_P2;PMS_P1;PMS_P2;Temp;Humidity;BMP_temperature;BMP_pressure;BME280_temperature;BME280_humidity;BME280_pressure;Samples;Min_cycle;Max_cycle;Signal;HPM_P1;HPM_P2
2021/03/19 00:02:08;;;;;;;8.73;6.43;;;;;;;-1.43;83.52;95474.22;5115509;27;20197;-76
2021/03/19 00:04:33;;;;;;;9.27;6.37;;;;;;;-1.39;83.37;95472.38;5115407;27;20173;-76
2021/03/19 00:06:59;;;;;;;9.50;6.93;;;;;;;-1.41;83.61;95474.16;5115434;27;20227;-77
2021/03/19 00:09:24;;;;;;;10.77;6.87;;;;;;;-1.38;83.44;95474.00;5133661;27;20290;-76
2021/03/19 00:11:49;;;;;;;9.30;6.30;;;;;;;-1.43;83.90;95468.31;5115236;27;20252;-76
2021/03/19 00:14:15;;;;;;;9.43;6.80;;;;;;;-1.46;83.73;95469.28;5115253;27;20707;-77
2021/03/19 00:16:40;;;;;;;10.47;6.57;;;;;;;-1.45;83.90;95478.59;5115268;27;20209;-77
2021/03/19 00:19:07;;;;;;;15.23;7.27;;;;;;;-1.42;83.85;95468.22;5115451;27;20205;-77
2021/03/19 00:21:34;;;;;;;8.57;7.23;;;;;;;-1.47;84.30;95467.66;5115404;27;20198;-77
2021/03/19 00:23:59;;;;;;;9.70;6.47;;;;;;;-1.46;83.83;95464.19;5115304;27;20199;-76
2021/03/19 00:26:25;;;;;;;8.67;6.43;;;;;;;-1.44;83.72;95464.13;5097769;27;20214;-77
2021/03/19 00:28:51;;;;;;;9.50;6.57;;;;;;;-1.44;83.56;95464.94;5115045;27;20537;-77
2021/03/19 00:31:16;;;;;;;9.43;6.73;;;;;;;-1.46;84.16;95459.09;5115018;27;20198;-77
2021/03/19 00:33:42;;;;;;;10.47;6.93;;;;;;;-1.42;83.95;95457.22;5098032;27;20539;-77
2021/03/19 00:36:07;;;;;;;9.43;6.53;;;;;;;-1.43;83.70;95460.66;5133112;27;20175;-77
2021/03/19 00:38:33;;;;;;;10.73;6.63;;;;;;;-1.44;83.88;95456.47;5133650;27;20198;-77
2021/03/19 00:40:58;;;;;;;10.40;7.13;;;;;;;-1.45;84.04;95458.19;5114792;27;20291;-77
2021/03/19 00:43:24;;;;;;;10.93;6.93;;;;;;;-1.47;84.22;95446.47;5114662;27;20178;-77
2021/03/19 00:45:49;;;;;;;7.43;6.57;;;;;;;-1.40;83.84;95459.72;5114488;27;20171;-76
2021/03/19 00:48:15;;;;;;;10.03;6.53;;;;;;;-1.40;83.76;95459.72;5114429;27;20177;-76
2021/03/19 00:50:41;;;;;;;8.80;6.17;;;;;;;-1.43;84.17;95458.13;5114160;27;20195;-77
2021/03/19 00:53:08;;;;;;;11.60;6.47;;;;;;;-1.46;83.89;95456.56;5114654;27;20659;-77
2021/03/19 00:55:33;;;;;;;9.27;6.20;;;;;;;-1.46;83.97;95446.38;5097334;27;20528;-77
2021/03/19 00:58:00;;;;;;;10.10;7.00;;;;;;;-1.46;83.91;95456.56;5133008;27;20196;-77
2021/03/19 01:00:27;;;;;;;10.37;7.07;;;;;;;-1.38;83.78;95448.53;5097520;27;20729;-77
2021/03/19 01:02:52;;;;;;;10.10;6.70;;;;;;;-1.46;83.91;95443.81;5114482;27;20720;-77
2021/03/19 01:05:33;;;;;;;10.57;6.93;;;;;;;-1.46;84.08;95445.56;5097158;27;20174;-77
2021/03/19 01:07:58;;;;;;;9.57;6.63;;;;;;;-1.48;84.34;95448.19;5097809;27;20599;-77
2021/03/19 01:10:47;;;;;;;11.77;6.60;;;;;;;-1.46;84.24;95445.56;5114296;27;20239;-77
2021/03/19 01:13:13;;;;;;;10.90;7.07;;;;;;;-1.49;84.30;95446.53;5114291;27;20657;-77
2021/03/19 01:15:39;;;;;;;9.80;6.80;;;;;;;-1.47;84.69;95442.19;5114035;28;20180;-77
2021/03/19 01:18:08;;;;;;;9.07;7.00;;;;;;;-1.47;84.50;95442.19;5133227;27;20428;-76
2021/03/19 01:20:35;;;;;;;8.37;6.03;;;;;;;-1.46;84.13;95443.81;5114254;27;20220;-77
2021/03/19 01:23:00;;;;;;;10.07;6.90;;;;;;;-1.46;84.31;95436.19;5097093;28;20195;-77
2021/03/19 01:25:26;;;;;;;8.93;6.80;;;;;;;-1.49;84.43;95435.53;5132286;27;20178;-77
2021/03/19 01:27:52;;;;;;;12.20;7.50;;;;;;;-1.45;84.31;95440.38;5096747;28;20177;-77
2021/03/19 01:30:20;;;;;;;10.97;6.77;;;;;;;-1.47;84.62;95439.63;5132365;28;20257;-77
2021/03/19 01:32:46;;;;;;;10.27;6.53;;;;;;;-1.49;84.52;95435.53;5097143;28;20664;-77
2021/03/19 01:35:13;;;;;;;8.83;7.20;;;;;;;-1.47;84.21;95431.19;5132119;28;20543;-77
2021/03/19 01:37:38;;;;;;;11.10;7.37;;;;;;;-1.50;84.59;95434.72;5114106;28;20181;-77
2021/03/19 01:40:06;;;;;;;8.47;7.17;;;;;;;-1.46;84.39;95430.28;5114101;28;20178;-77
2021/03/19 01:42:32;;;;;;;9.63;7.10;;;;;;;-1.50;84.51;95427.06;5132258;28;20195;-77
2021/03/19 01:45:35;;;;;;;11.33;7.27;;;;;;;-1.51;84.49;95425.41;5113721;28;20616;-77
2021/03/19 01:48:45;;;;;;;9.93;7.30;;;;;;;-1.49;84.70;95426.16;5132414;28;20594;-77
2021/03/19 01:51:48;;;;;;;11.33;7.70;;;;;;;-1.52;84.49;95423.75;5093123;28;20673;-77
2021/03/19 01:54:51;;;;;;;11.33;7.40;;;;;;;-1.45;84.51;95421.72;5113774;28;20272;-77
2021/03/19 01:57:53;;;;;;;10.03;7.43;;;;;;;-1.50;84.51;95414.34;5125104;28;20179;-77
2021/03/19 02:00:56;;;;;;;9.77;7.10;;;;;;;-1.47;84.35;95408.25;5112633;28;20661;-77
2021/03/19 02:03:59;;;;;;;8.63;7.17;;;;;;;-1.45;84.32;95401.34;5114285;28;20238;-77
2021/03/19 02:07:18;;;;;;;10.00;7.63;;;;;;;-1.40;84.19;95408.75;5114234;28;20213;-77
2021/03/19 02:10:21;;;;;;;11.37;8.40;;;;;;;-1.47;84.16;95398.06;5032434;28;20221;-77
2021/03/19 02:13:24;;;;;;;9.20;7.13;;;;;;;-1.47;84.47;95386.16;5097073;28;20229;-77
2021/03/19 02:16:26;;;;;;;10.00;7.57;;;;;;;-1.49;84.35;95390.50;5115031;28;20303;-76
2021/03/19 02:19:29;;;;;;;11.63;8.10;;;;;;;-1.50;84.04;95390.59;5115359;28;20652;-76
2021/03/19 02:22:32;;;;;;;10.90;7.70;;;;;;;-1.45;84.28;95386.88;5113852;28;20240;-77
2021/03/19 02:25:34;;;;;;;11.07;7.13;;;;;;;-1.44;84.19;95390.25;5115322;28;20255;-77
2021/03/19 02:28:37;;;;;;;8.63;6.83;;;;;;;-1.48;84.12;95381.97;5114953;28;20213;-77
2021/03/19 02:31:09;;;;;;;10.37;7.03;;;;;;;-1.45;84.05;95389.44;5113953;28;20211;-77
2021/03/19 02:33:35;;;;;;;10.67;6.90;;;;;;;-1.42;83.84;95396.91;5115169;28;20643;-76
2021/03/19 02:36:00;;;;;;;9.33;7.57;;;;;;;-1.45;83.92;95394.53;5096481;28;20557;-77
2021/03/19 02:38:27;;;;;;;9.40;6.87;;;;;;;-1.40;83.66;95396.84;5113685;28;20187;-76
2021/03/19 02:40:53;;;;;;;10.27;6.90;;;;;;;-1.42;83.57;95398.63;5096713;28;20544;-77
2021/03/19 02:43:20;;;;;;;10.67;7.77;;;;;;;-1.42;84.22;95407.09;5096816;28;20461;-77
2021/03/19 02:45:46;;;;;;;11.37;6.83;;;;;;;-1.38;83.40;95400.13;5096364;28;20199;-76
2021/03/19 02:48:12;;;;;;;8.83;7.50;;;;;;;-1.39;83.93;95400.22;5096623;28;20643;-77
2021/03/19 02:50:37;;;;;;;8.67;7.20;;;;;;;-1.47;84.42;95393.78;5096473;28;20757;-76
2021/03/19 02:53:03;;;;;;;14.03;8.10;;;;;;;-1.52;84.35;95390.66;5114788;28;20294;-77
2021/03/19 02:55:29;;;;;;;11.33;7.20;;;;;;;-1.47;84.39;95392.97;5114580;28;20185;-77
2021/03/19 02:57:54;;;;;;;10.67;7.80;;;;;;;-1.45;84.34;95391.16;5096448;28;20170;-76
2021/03/19 03:00:23;;;;;;;11.73;7.93;;;;;;;-1.48;84.61;95387.06;5114559;28;20179;-77
2021/03/19 03:02:49;;;;;;;11.30;7.47;;;;;;;-1.53;84.40;95388.19;5096184;28;20264;-77
2021/03/19 03:05:15;;;;;;;13.87;8.70;;;;;;;-1.51;84.56;95387.19;5078903;28;20557;-77
2021/03/19 03:07:41;;;;;;;13.53;8.00;;;;;;;-1.53;84.52;95389.00;5114733;28;20187;-77
2021/03/19 03:10:09;;;;;;;10.20;7.40;;;;;;;-1.47;84.37;95392.97;5096032;28;20566;-77
2021/03/19 03:12:34;;;;;;;11.33;8.00;;;;;;;-1.52;84.88;95393.19;5113260;28;20214;-77
2021/03/19 03:15:00;;;;;;;11.27;8.20;;;;;;;-1.52;84.42;95387.28;5095924;28;20192;-76
2021/03/19 03:17:25;;;;;;;13.63;8.50;;;;;;;-1.57;84.51;95384.97;5096071;28;20549;-76
2021/03/19 03:19:51;;;;;;;16.00;8.60;;;;;;;-1.52;84.62;95390.66;5096007;28;20170;-77
2021/03/19 03:22:16;;;;;;;11.33;8.50;;;;;;;-1.54;84.50;95387.34;5078858;28;20205;-77
2021/03/19 03:24:41;;;;;;;15.60;8.90;;;;;;;-1.47;84.17;95382.78;5095729;28;20182;-77
2021/03/19 03:27:08;;;;;;;11.07;8.20;;;;;;;-1.56;84.71;95389.16;5095738;28;20171;-76
2021/03/19 03:29:35;;;;;;;13.60;9.20;;;;;;;-1.58;84.90;95382.53;5096020;28;20209;-77
2021/03/19 03:32:00;;;;;;;13.43;9.07;;;;;;;-1.53;84.43;95380.53;5095588;28;20226;-76
2021/03/19 03:34:25;;;;;;;11.00;8.90;;;;;;;-1.55;85.01;95384.91;5095503;28;20175;-77
2021/03/19 03:36:51;;;;;;;10.90;8.07;;;;;;;-1.56;84.78;95384.06;5095806;28;20258;-76
2021/03/19 03:39:25;;;;;;;12.00;8.97;;;;;;;-1.54;84.77;95392.44;5095475;28;20197;-76
2021/03/19 03:41:51;;;;;;;13.50;8.93;;;;;;;-1.52;84.69;95387.28;5095765;28;20263;-77
2021/03/19 03:44:17;;;;;;;12.07;8.73;;;;;;;-1.58;84.83;95390.97;5095390;28;20966;-77
2021/03/19 03:46:44;;;;;;;12.40;9.23;;;;;;;-1.54;84.57;95392.44;5095625;28;20256;-76
2021/03/19 03:49:10;;;;;;;13.90;8.93;;;;;;;-1.53;84.58;95388.19;5095738;28;20610;-76
2021/03/19 03:51:35;;;;;;;11.20;8.43;;;;;;;-1.55;84.71;95392.53;5095470;28;20285;-77
2021/03/19 03:54:00;;;;;;;12.77;9.27;;;;;;;-1.56;84.58;95389.16;5113651;28;20182;-77
2021/03/19 03:56:26;;;;;;;16.07;10.10;;;;;;;-1.59;85.14;95398.66;5095417;28;20251;-76
2021/03/19 03:58:52;;;;;;;16.70;12.90;;;;;;;-1.59;85.40;95394.44;5095329;28;20270;-76
2021/03/19 04:01:18;;;;;;;19.10;12.93;;;;;;;-1.62;85.26;95399.66;5095275;28;20228;-77
2021/03/19 04:03:44;;;;;;;22.07;14.90;;;;;;;-1.61;85.80;95395.38;5095208;28;20205;-77
2021/03/19 04:06:09;;;;;;;21.40;15.77;;;;;;;-1.63;85.66;95397.19;5094945;28;20345;-77
2021/03/19 04:08:35;;;;;;;15.57;10.80;;;;;;;-1.68;86.24;95394.88;5095069;28;20179;-77
2021/03/19 04:11:03;;;;;;;13.60;10.27;;;;;;;-1.67;86.31;95394.00;5094814;28;20291;-76
2021/03/19 04:13:30;;;;;;;14.20;10.83;;;;;;;-1.68;85.94;95397.41;5095209;28;20579;-76
2021/03/19 04:15:56;;;;;;;17.90;11.43;;;;;;;-1.70;86.27;95396.69;5094657;28;20174;-76
2021/03/19 04:18:22;;;;;;;18.90;12.43;;;;;;;-1.68;86.71;95396.59;5094915;28;20180;-76
2021/03/19 04:20:49;;;;;;;15.67;12.17;;;;;;;-1.70;86.38;95396.69;5094769;28;20266;-76
2021/03/19 04:23:16;;;;;;;13.83;10.97;;;;;;;-1.72;86.57;95390.84;5094899;28;20186;-76
2021/03/19 04:25:41;;;;;;;16.67;10.77;;;;;;;-1.72;86.61;95393.38;5094168;28;20179;-76
2021/03/19 04:28:11;;;;;;;15.93;9.67;;;;;;;-1.71;86.55;95398.41;5094726;28;20639;-76
2021/03/19 04:30:40;;;;;;;17.10;11.27;;;;;;;-1.72;86.74;95399.31;5094674;28;20204;-76
2021/03/19 04:33:10;;;;;;;17.03;11.23;;;;;;;-1.76;86.75;95386.81;5094768;28;20323;-76
2021/03/19 04:35:35;;;;;;;14.57;10.60;;;;;;;-1.74;86.87;95400.28;5094471;28;20172;-76
2021/03/19 04:38:06;;;;;;;16.30;10.80;;;;;;;-1.69;87.02;95405.94;5077589;28;20207;-76
2021/03/19 04:40:31;;;;;;;17.70;11.10;;;;;;;-1.73;86.64;95400.22;5094506;28;20243;-76
2021/03/19 04:42:59;;;;;;;16.30;11.13;;;;;;;-1.71;86.96;95402.66;5094511;28;20251;-76
2021/03/19 04:45:24;;;;;;;16.60;10.37;;;;;;;-1.69;86.55;95402.59;5077513;28;20185;-76
2021/03/19 04:47:53;;;;;;;16.00;10.93;;;;;;;-1.78;87.15;95406.41;5094537;28;20179;-76
2021/03/19 04:50:19;;;;;;;19.07;11.50;;;;;;;-1.82;87.31;95405.75;5112600;28;20198;-76
2021/03/19 04:52:44;;;;;;;14.03;10.60;;;;;;;-1.83;87.37;95403.28;5094172;28;20564;-76
2021/03/19 04:55:10;;;;;;;16.20;11.47;;;;;;;-1.83;87.23;95405.84;5112485;28;20611;-77
2021/03/19 04:57:36;;;;;;;17.80;11.63;;;;;;;-1.80;86.99;95413.31;5112753;28;20549;-76
2021/03/19 05:00:04;;;;;;;18.07;12.13;;;;;;;-1.84;87.55;95406.75;5094111;28;20168;-76
2021/03/19 05:02:40;;;;;;;16.77;11.40;;;;;;;-1.82;87.42;95408.31;5112267;28;20199;-76
2021/03/19 05:05:09;;;;;;;15.83;11.90;;;;;;;-1.76;87.58;95412.28;5093957;28;20185;-76
2021/03/19 05:07:34;;;;;;;17.57;12.10;;;;;;;-1.76;87.39;95412.28;5093952;28;20178;-76
2021/03/19 05:10:00;;;;;;;19.93;12.63;;;;;;;-1.84;87.79;95410.09;5093635;28;20572;-76
2021/03/19 05:12:25;;;;;;;20.17;13.33;;;;;;;-1.81;87.90;95411.66;5111916;28;20211;-77
2021/03/19 05:14:50;;;;;;;61.47;13.77;;;;;;;-1.81;87.52;95414.22;5093754;28;20639;-76
2021/03/19 05:17:16;;;;;;;52.03;13.37;;;;;;;-1.85;87.72;95413.56;5093720;28;20179;-76
2021/03/19 05:19:42;;;;;;;22.70;13.67;;;;;;;-1.81;87.92;95414.22;5093996;28;20179;-76
2021/03/19 05:22:07;;;;;;;22.70;13.17;;;;;;;-1.83;88.35;95411.75;5093745;28;20220;-76
2021/03/19 05:24:33;;;;;;;19.93;12.70;;;;;;;-1.79;88.13;95414.97;5076679;28;20193;-77
2021/03/19 05:26:58;;;;;;;21.17;13.10;;;;;;;-1.69;88.08;95412.78;5093339;28;20266;-76
2021/03/19 05:29:23;;;;;;;20.03;13.10;;;;;;;-1.74;88.04;95415.56;5076748;28;20209;-76
2021/03/19 05:31:49;;;;;;;18.77;12.03;;;;;;;-1.72;87.56;95406.13;5093970;28;20199;-76
2021/03/19 05:34:14;;;;;;;20.53;13.80;;;;;;;-1.76;88.02;95418.19;5093563;28;20563;-77
2021/03/19 05:36:39;;;;;;;20.10;13.93;;;;;;;-1.72;87.91;95418.84;5099948;28;20646;-76
2021/03/19 05:39:06;;;;;;;22.07;14.00;;;;;;;-1.73;88.07;95420.56;5100608;28;20577;-76
2021/03/19 05:41:35;;;;;;;19.73;12.87;;;;;;;-1.71;87.84;95426.41;5100441;28;20237;-76
2021/03/19 05:44:27;;;;;;;21.10;13.70;;;;;;;-1.76;88.03;95422.47;5100406;28;20197;-76
2021/03/19 05:46:56;;;;;;;21.50;13.87;;;;;;;-1.71;88.32;95430.69;5097785;28;20202;-77
2021/03/19 05:49:27;;;;;;;21.20;14.20;;;;;;;-1.71;88.04;95431.50;5100199;28;20211;-76
2021/03/19 05:52:20;;;;;;;21.90;14.40;;;;;;;-1.74;88.17;95436.75;5100564;28;20608;-76
2021/03/19 05:54:49;;;;;;;21.73;14.53;;;;;;;-1.70;88.32;95437.41;5096604;28;20198;-76
2021/03/19 05:57:26;;;;;;;19.27;14.37;;;;;;;-1.69;88.36;95439.06;5100284;28;20631;-76
2021/03/19 05:59:53;;;;;;;110.77;18.77;;;;;;;-1.71;88.38;95440.84;5100421;28;20549;-76
2021/03/19 06:02:21;;;;;;;32.73;16.00;;;;;;;-1.67;87.97;95447.47;5100229;28;20743;-76
2021/03/19 06:04:58;;;;;;;80.37;18.67;;;;;;;-1.80;88.45;95454.03;5118165;28;20230;-76
2021/03/19 06:07:37;;;;;;;144.27;21.53;;;;;;;-1.88;89.15;95453.59;5100156;28;20210;-76
2021/03/19 06:10:18;;;;;;;75.87;17.20;;;;;;;-1.84;89.29;95460.19;5100202;28;20202;-76
2021/03/19 06:12:43;;;;;;;30.67;15.57;;;;;;;-1.83;89.45;95457.56;5118215;28;20665;-76
2021/03/19 06:15:23;;;;;;;28.10;17.53;;;;;;;-1.74;89.07;95459.66;5099866;28;20174;-76
2021/03/19 06:17:48;;;;;;;83.27;15.83;;;;;;;-1.83;88.86;95461.84;5117062;28;20183;-76
2021/03/19 06:20:16;;;;;;;158.10;21.13;;;;;;;-1.83;89.39;95464.38;5100113;28;20176;-76
2021/03/19 06:22:58;;;;;;;140.60;20.10;;;;;;;-1.71;89.49;95467.13;5100011;28;20208;-76
2021/03/19 06:25:34;;;;;;;30.50;15.73;;;;;;;-1.66;88.92;95471.19;5100120;28;20209;-76
2021/03/19 06:28:19;;;;;;;258.47;25.53;;;;;;;-1.82;89.21;95468.56;5093335;28;20635;-77
2021/03/19 06:30:44;;;;;;;99.03;19.50;;;;;;;-1.77;89.22;95472.56;5117928;28;20236;-76
2021/03/19 06:33:12;;;;;;;25.37;15.80;;;;;;;-1.67;89.60;95480.56;5110981;28;20667;-77
2021/03/19 06:35:40;;;;;;;35.63;15.87;;;;;;;-1.60;89.25;95474.25;5098751;28;20179;-76
2021/03/19 06:38:25;;;;;;;410.13;36.67;;;;;;;-1.67;89.49;95475.47;5099433;28;20187;-76
2021/03/19 06:40:51;;;;;;;309.07;30.17;;;;;;;-1.68;89.32;95471.25;5095774;28;20179;-76
2021/03/19 06:43:26;;;;;;;286.07;28.07;;;;;;;-1.72;89.36;95470.59;5096794;28;20188;-76
2021/03/19 06:46:06;;;;;;;126.00;19.53;;;;;;;-1.62;88.99;95470.13;5098638;28;20673;-75
2021/03/19 06:48:35;;;;;;;106.83;19.63;;;;;;;-1.61;89.40;95477.69;5106852;28;20178;-76
2021/03/19 06:51:01;;;;;;;226.00;28.77;;;;;;;-1.61;89.10;95476.88;5095803;28;20210;-76
2021/03/19 06:53:30;;;;;;;551.13;41.47;;;;;;;-1.72;89.06;95474.84;5097902;28;20244;-75
2021/03/19 06:56:12;;;;;;;416.60;34.07;;;;;;;-1.70;89.57;95473.06;5078376;28;20185;-75
2021/03/19 06:58:40;;;;;;;166.33;21.73;;;;;;;-1.64;89.49;95477.84;5086793;28;20182;-74
2021/03/19 07:01:14;;;;;;;401.67;34.47;;;;;;;-1.70;89.54;95473.06;5093694;27;20207;-74
2021/03/19 07:04:13;;;;;;;202.17;26.50;;;;;;;-1.67;89.56;95478.00;5096974;28;20186;-75
2021/03/19 07:06:59;;;;;;;125.20;19.90;;;;;;;-1.52;89.26;95473.88;5092287;28;20191;-75
2021/03/19 07:09:58;;;;;;;70.40;17.57;;;;;;;-1.45;89.31;95478.59;5109641;28;20218;-75
2021/03/19 07:12:31;;;;;;;81.73;19.07;;;;;;;-1.35;88.69;95473.03;5107342;28;20281;-74
2021/03/19 07:15:19;;;;;;;57.77;17.73;;;;;;;-1.36;88.67;95476.47;5094637;28;20191;-75
2021/03/19 07:18:12;;;;;;;84.10;18.07;;;;;;;-1.34;88.58;95477.22;5079750;28;20594;-75
2021/03/19 07:21:02;;;;;;;281.70;26.93;;;;;;;-1.30;88.49;95477.00;5060076;28;20568;-74
2021/03/19 07:23:38;;;;;;;121.70;19.00;;;;;;;-1.29;88.00;95481.19;5094263;28;20214;-75
2021/03/19 07:26:09;;;;;;;54.63;16.07;;;;;;;-1.14;87.81;95484.69;5095181;28;20195;-75
2021/03/19 07:28:43;;;;;;;81.60;18.13;;;;;;;-1.20;87.84;95485.00;5094678;28;20540;-75
2021/03/19 07:31:33;;;;;;;61.97;17.57;;;;;;;-1.19;88.07;95487.47;5113264;28;20708;-75
2021/03/19 07:34:10;;;;;;;36.87;17.13;;;;;;;-1.07;87.86;95490.28;5093521;28;20237;-75
2021/03/19 07:36:54;;;;;;;55.40;17.20;;;;;;;-0.98;87.43;95497.44;5112743;28;20187;-75
2021/03/19 07:39:42;;;;;;;66.57;18.23;;;;;;;-0.99;87.43;95503.44;5111501;28;20578;-75
2021/03/19 07:42:41;;;;;;;49.23;17.67;;;;;;;-0.95;87.43;95507.50;5082262;28;20234;-75
2021/03/19 07:45:13;;;;;;;20.77;12.00;;;;;;;-0.96;87.14;95509.22;5110937;28;20195;-75
2021/03/19 07:47:48;;;;;;;29.90;13.10;;;;;;;-0.95;86.76;95518.53;5114659;27;20187;-75
2021/03/19 07:50:23;;;;;;;24.27;13.87;;;;;;;-1.00;86.58;95509.44;5090785;28;20294;-75
2021/03/19 07:52:56;;;;;;;27.50;12.50;;;;;;;-1.01;86.68;95520.56;5102092;27;20288;-75
2021/03/19 07:55:32;;;;;;;148.77;20.60;;;;;;;-1.28;87.10;95517.69;5111180;28;20704;-75
2021/03/19 07:58:21;;;;;;;27.97;12.70;;;;;;;-1.20;87.62;95518.13;5088460;28;20189;-75
2021/03/19 08:00:54;;;;;;;46.93;14.33;;;;;;;-1.20;87.77;95516.38;5094186;28;20646;-74
2021/03/19 08:03:24;;;;;;;64.07;15.80;;;;;;;-1.21;87.51;95517.28;5094695;28;20192;-75
2021/03/19 08:05:52;;;;;;;65.40;14.73;;;;;;;-1.14;87.12;95515.28;5094150;28;20204;-75
2021/03/19 08:08:24;;;;;;;74.13;14.60;;;;;;;-1.06;86.90;95525.91;5091764;28;21249;-75
2021/03/19 08:11:17;;;;;;;25.17;13.90;;;;;;;-0.89;86.82;95523.28;5093268;28;20240;-74
2021/03/19 08:14:04;;;;;;;33.17;13.47;;;;;;;-0.86;86.51;95527.41;5092994;28;20668;-75
2021/03/19 08:16:48;;;;;;;55.80;14.43;;;;;;;-0.98;86.37;95528.84;5092968;28;20183;-74
2021/03/19 08:19:13;;;;;;;75.87;16.27;;;;;;;-0.88;86.23;95524.13;5112602;28;20590;-74
2021/03/19 08:21:56;;;;;;;27.33;14.20;;;;;;;-0.84;86.38;95533.25;5112242;28;20199;-75
2021/03/19 08:24:54;;;;;;;120.17;18.13;;;;;;;-0.84;86.30;95534.97;5093764;28;20180;-76
2021/03/19 08:27:38;;;;;;;373.10;27.07;;;;;;;-1.06;86.25;95536.09;5103440;28;20683;-74
2021/03/19 08:30:25;;;;;;;27.13;13.10;;;;;;;-0.86;86.44;95538.44;5107446;28;20198;-75
2021/03/19 08:33:00;;;;;;;94.43;16.77;;;;;;;-0.93;86.51;95538.81;5094494;28;20218;-74
2021/03/19 08:35:32;;;;;;;71.57;14.60;;;;;;;-0.84;86.18;95546.00;5093695;28;20183;-74
2021/03/19 08:38:21;;;;;;;44.50;13.60;;;;;;;-0.75;86.34;95542.16;5088019;28;20171;-74
2021/03/19 08:40:53;;;;;;;34.83;13.30;;;;;;;-0.63;85.42;95547.44;5093486;28;20175;-73
2021/03/19 08:43:24;;;;;;;19.80;12.47;;;;;;;-0.53;85.81;95554.59;5089200;28;20178;-74
2021/03/19 08:46:08;;;;;;;24.00;11.10;;;;;;;-0.64;85.20;95553.44;5093486;28;20182;-74
2021/03/19 08:48:34;;;;;;;20.63;11.40;;;;;;;-0.47;85.07;95559.38;5093677;28;20190;-75
2021/03/19 08:51:12;;;;;;;15.77;10.23;;;;;;;-0.35;84.60;95561.31;5098266;28;20207;-74
2021/03/19 08:54:09;;;;;;;28.50;12.63;;;;;;;-0.52;84.52;95561.38;5093228;28;20191;-74
2021/03/19 08:56:35;;;;;;;17.33;9.97;;;;;;;-0.77;84.99;95557.53;5093386;28;20198;-74
2021/03/19 08:59:00;;;;;;;19.23;10.63;;;;;;;-0.82;85.45;95564.59;5093229;28;20184;-74
2021/03/19 09:01:46;;;;;;;57.97;12.37;;;;;;;-1.03;86.17;95565.69;5111678;28;20196;-74
2021/03/19 09:04:12;;;;;;;23.33;11.20;;;;;;;-1.05;86.34;95563.22;5093206;28;20198;-74
2021/03/19 09:06:37;;;;;;;35.17;11.93;;;;;;;-1.07;86.73;95567.56;5111361;28;20577;-74
2021/03/19 09:09:33;;;;;;;20.00;12.77;;;;;;;-1.00;86.86;95565.53;5090657;28;20187;-74
2021/03/19 09:12:01;;;;;;;29.67;13.10;;;;;;;-1.02;86.47;95572.44;5110626;28;20269;-75
2021/03/19 09:14:32;;;;;;;20.37;12.73;;;;;;;-1.05;86.86;95570.88;5111254;28;20783;-75
2021/03/19 09:16:57;;;;;;;425.97;33.53;;;;;;;-1.18;87.32;95580.00;5090554;28;20191;-75
2021/03/19 09:19:32;;;;;;;21.93;13.70;;;;;;;-0.81;86.56;95581.53;5111715;27;20178;-75
2021/03/19 09:22:37;;;;;;;20.03;12.13;;;;;;;-0.37;83.95;95586.06;5095126;28;20796;-75
2021/03/19 09:25:11;;;;;;;20.77;13.50;;;;;;;-0.46;83.85;95589.91;5028093;28;20660;-74
2021/03/19 09:28:00;;;;;;;16.37;11.57;;;;;;;-0.42;83.27;95593.16;5038583;28;20273;-75
2021/03/19 09:30:42;;;;;;;19.20;12.77;;;;;;;-0.58;83.87;95595.66;5043105;28;20212;-75
2021/03/19 09:33:12;;;;;;;16.33;11.50;;;;;;;-0.71;84.29;95602.28;5048232;28;20216;-75
2021/03/19 09:35:47;;;;;;;17.60;11.33;;;;;;;-0.96;84.56;95603.53;5030997;28;20190;-74
2021/03/19 09:38:33;;;;;;;17.70;10.73;;;;;;;-0.65;83.78;95604.53;5048215;28;20571;-74
2021/03/19 09:41:00;;;;;;;15.50;10.93;;;;;;;-0.47;83.63;95601.03;5047947;28;20188;-75
2021/03/19 09:43:39;;;;;;;16.80;11.53;;;;;;;-0.01;82.38;95603.69;5027721;28;20192;-75
2021/03/19 09:46:24;;;;;;;16.40;11.07;;;;;;;0.21;80.49;95606.75;5048046;28;20197;-75
2021/03/19 09:49:04;;;;;;;12.70;9.37;;;;;;;0.39;79.04;95604.09;5030751;28;20185;-76
2021/03/19 09:51:38;;;;;;;18.33;11.50;;;;;;;0.80;78.98;95614.59;5048032;28;20299;-75
2021/03/19 09:54:29;;;;;;;13.17;9.77;;;;;;;0.71;78.26;95608.25;5047642;28;20287;-74
2021/03/19 09:57:00;;;;;;;11.50;9.47;;;;;;;1.03;76.30;95608.13;5048211;28;20697;-74
2021/03/19 09:59:27;;;;;;;11.77;9.20;;;;;;;0.84;76.74;95616.88;5054561;28;20184;-75
2021/03/19 10:01:53;;;;;;;14.07;10.07;;;;;;;0.28;77.53;95620.03;5081884;28;20192;-76
2021/03/19 10:04:35;;;;;;;13.47;9.57;;;;;;;0.26;78.96;95626.94;5075757;28;20183;-75
2021/03/19 10:07:05;;;;;;;12.50;9.40;;;;;;;0.24;78.68;95628.75;5096572;28;20188;-75
2021/03/19 10:10:00;;;;;;;14.03;10.37;;;;;;;-0.12;79.47;95629.81;5102522;28;20208;-75
2021/03/19 10:12:31;;;;;;;14.17;9.93;;;;;;;-0.02;79.58;95623.31;5029228;28;20316;-74
2021/03/19 10:15:12;;;;;;;14.77;10.40;;;;;;;-0.17;80.41;95630.97;5016703;28;20342;-75
2021/03/19 10:17:37;;;;;;;15.43;10.97;;;;;;;-0.21;81.02;95630.28;5020877;28;20713;-75
2021/03/19 10:20:28;;;;;;;16.30;12.27;;;;;;;-0.22;81.58;95632.94;5018471;28;20224;-75
2021/03/19 10:22:56;;;;;;;17.13;12.73;;;;;;;-0.43;82.94;95627.22;5013658;28;20210;-75
2021/03/19 10:25:27;;;;;;;16.77;11.13;;;;;;;-0.07;82.87;95627.03;5018824;28;20209;-75
2021/03/19 10:27:55;;;;;;;16.27;11.50;;;;;;;0.25;81.83;95632.94;5013792;28;20585;-75
2021/03/19 10:30:28;;;;;;;13.90;10.57;;;;;;;0.07;80.80;95637.31;5030002;28;20228;-75
2021/03/19 10:32:57;;;;;;;15.47;11.23;;;;;;;-0.01;80.53;95635.16;5039665;28;20205;-75
2021/03/19 10:35:50;;;;;;;16.00;11.37;;;;;;;-0.13;81.79;95629.91;5019080;28;20295;-75
2021/03/19 10:38:22;;;;;;;16.40;11.77;;;;;;;0.09;81.21;95638.06;5039233;28;20189;-75
2021/03/19 10:40:52;;;;;;;13.53;10.47;;;;;;;-0.06;81.22;95633.78;5014854;28;20213;-74
2021/03/19 10:43:25;;;;;;;15.50;11.17;;;;;;;-0.18;82.56;95631.84;5011808;28;20735;-75
2021/03/19 10:45:54;;;;;;;21.57;12.83;;;;;;;-0.69;84.46;95633.66;5014613;28;20182;-75
2021/03/19 10:48:47;;;;;;;16.47;11.47;;;;;;;-0.71;84.70;95631.16;5037504;28;20252;-75
2021/03/19 10:51:13;;;;;;;12.10;8.13;;;;;;;-0.94;85.91;95649.34;5106989;27;20716;-74
2021/03/19 10:53:51;;;;;;;13.10;10.17;;;;;;;-1.09;85.88;95650.09;5095868;28;20540;-75
2021/03/19 10:56:17;;;;;;;12.33;9.80;;;;;;;-1.23;85.74;95660.97;5093425;28;20175;-74
2021/03/19 10:58:53;;;;;;;13.87;9.50;;;;;;;-1.21;86.37;95651.53;5097056;28;20183;-75
2021/03/19 11:01:34;;;;;;;14.73;10.27;;;;;;;-1.09;85.23;95653.47;5086134;28;20221;-74
2021/03/19 11:04:25;;;;;;;14.30;11.03;;;;;;;-1.24;85.56;95659.28;5095158;28;20185;-74
2021/03/19 11:06:51;;;;;;;15.07;11.07;;;;;;;-1.19;85.63;95662.47;5113737;28;20171;-75
2021/03/19 11:09:23;;;;;;;16.30;11.30;;;;;;;-1.28;86.10;95663.72;5095286;28;20525;-76
2021/03/19 11:11:52;;;;;;;16.10;11.77;;;;;;;-1.24;86.35;95670.31;5093173;28;20238;-75
2021/03/19 11:14:20;;;;;;;18.90;12.63;;;;;;;-1.14;85.75;95663.06;5077416;28;20268;-78
2021/03/19 11:16:48;;;;;;;18.40;12.50;;;;;;;-0.94;85.57;95662.91;5112724;28;20248;-75
2021/03/19 11:19:18;;;;;;;15.90;11.17;;;;;;;-0.80;84.81;95663.94;5095392;28;20266;-76
2021/03/19 11:21:44;;;;;;;16.70;11.73;;;;;;;-0.63;84.41;95671.59;5095218;28;20231;-75
2021/03/19 11:24:21;;;;;;;15.93;11.00;;;;;;;-0.54;83.09;95663.47;5095413;28;20210;-75
2021/03/19 11:27:02;;;;;;;15.43;11.27;;;;;;;-0.39;82.92;95674.63;5091965;28;20255;-75
2021/03/19 11:29:34;;;;;;;14.70;11.13;;;;;;;0.08;80.83;95677.25;5110182;28;20206;-75
2021/03/19 11:32:07;;;;;;;12.67;8.87;;;;;;;0.30;78.10;95671.84;5095173;28;20704;-75
2021/03/19 11:34:37;;;;;;;11.40;8.80;;;;;;;0.94;77.27;95673.41;5112629;28;20188;-75
2021/03/19 11:37:19;;;;;;;13.70;8.90;;;;;;;1.12;75.51;95666.44;5075049;28;20655;-75
2021/03/19 11:39:57;;;;;;;11.30;9.13;;;;;;;1.02;76.71;95676.38;5094674;28;20180;-75
2021/03/19 11:42:28;;;;;;;12.37;9.70;;;;;;;0.70;77.55;95682.44;5094030;28;20602;-75
2021/03/19 11:45:13;;;;;;;12.77;9.30;;;;;;;0.17;77.56;95681.88;5112049;28;20762;-75
2021/03/19 11:47:45;;;;;;;11.17;8.93;;;;;;;0.09;77.78;95684.03;5077283;28;20206;-75
2021/03/19 11:50:20;;;;;;;11.43;8.97;;;;;;;-0.09;77.10;95695.19;5112958;28;20206;-77
2021/03/19 11:52:46;;;;;;;12.57;8.83;;;;;;;0.02;76.98;95700.59;5101700;28;20221;-75